KCCO

Details ICAO KCCO
Name NEWNAN COWETA CO
Region United States
Timezone America/New_York (UTC-5.0)
Plans Departing 91
Arriving 39
Stats Elevation 970 ft / 296 m (AMSL)
Location 33.311600° -84.769800°
Runways 1
Magnetic Variation 5.095° W
Sunrise 2021-03-07 12:01:00 UTC / 2021-03-07 07:01:00 Local
Sunset 2021-03-07 23:41:58 UTC / 2021-03-07 18:41:58 Local
Advertisement - Login to hide

Runways

ID Width Length Bearing (true/mag) Surface Threshold Overrun Markings Lighting
14 100 ft / 30 m 5,500 ft / 1,676 m 139.63° / 144.73° ASPHALT 0 ft / 0 m 0 ft / 0 m APP EDGE THRESHOLD
32 100 ft / 30 m 5,500 ft / 1,676 m 319.64° / 324.73° ASPHALT 0 ft / 0 m 0 ft / 0 m PREC-APP EDGE THRESHOLD MALSR

Approach Navaids

Runway Type Ident Frequency Range Bearing (true/mag) Slope Elevation
32 LOC-ILS ICCO 110.75 MHz 18 nm / 33 km 319.64° / 324.73° - 970 ft / 296 m (AMSL)

Map

Weather


0- 5 10 15 20 25 30 35+ Temperature / °C

Clouds and Precipitation
Forecast for 2021-03-08 00:00 UTC. Updated 5 hours ago

Ground ~20,000 ft ~40,000 ft Winds

METAR

KCCO 080235Z AUTO 00000KT 10SM CLR 08/M05 A3041 RMK AO2 T00811050

TAF

Not found

Frequencies

Clearance 119.80 MHz CLNC DEL
Recorded 118.97 MHz AWOS 3
Approach 119.80 MHz ATLANTA APP/DEP
Unicom 122.80 MHz CTAF/UNICOM
Warning: Do not use this data for real-world aviation or navigation. No guarantee of current accuracy is given.